sensor_id;sensor_type;location;lat;lon;timestamp;P1;durP1;ratioP1;P2;durP2;ratioP2
61899;SDS011;47853;55.890;37.664;2023-12-20T00:00:12;1.98;;;0.80;;
61899;SDS011;47853;55.890;37.664;2023-12-20T00:02:38;1.23;;;0.63;;
61899;SDS011;47853;55.890;37.664;2023-12-20T00:05:04;1.65;;;0.80;;
61899;SDS011;47853;55.890;37.664;2023-12-20T00:07:30;1.40;;;0.88;;
61899;SDS011;47853;55.890;37.664;2023-12-20T00:09:55;2.75;;;1.30;;
61899;SDS011;47853;55.890;37.664;2023-12-20T00:12:20;1.65;;;1.00;;
61899;SDS011;47853;55.890;37.664;2023-12-20T00:14:46;2.13;;;1.10;;
61899;SDS011;47853;55.890;37.664;2023-12-20T00:17:11;1.73;;;1.38;;
61899;SDS011;47853;55.890;37.664;2023-12-20T00:19:37;1.50;;;1.40;;
61899;SDS011;47853;55.890;37.664;2023-12-20T00:22:02;1.63;;;1.30;;
61899;SDS011;47853;55.890;37.664;2023-12-20T00:24:28;2.35;;;1.13;;
61899;SDS011;47853;55.890;37.664;2023-12-20T00:26:53;1.38;;;1.27;;
61899;SDS011;47853;55.890;37.664;2023-12-20T00:29:19;1.30;;;1.17;;
61899;SDS011;47853;55.890;37.664;2023-12-20T00:31:44;1.33;;;1.23;;
61899;SDS011;47853;55.890;37.664;2023-12-20T00:34:09;1.92;;;1.38;;
61899;SDS011;47853;55.890;37.664;2023-12-20T00:36:35;1.65;;;1.38;;
61899;SDS011;47853;55.890;37.664;2023-12-20T00:39:00;1.10;;;1.00;;
61899;SDS011;47853;55.890;37.664;2023-12-20T00:41:26;2.60;;;1.30;;
61899;SDS011;47853;55.890;37.664;2023-12-20T00:43:51;0.85;;;0.85;;
61899;SDS011;47853;55.890;37.664;2023-12-20T00:46:17;1.55;;;0.90;;
61899;SDS011;47853;55.890;37.664;2023-12-20T00:48:42;1.25;;;1.15;;
61899;SDS011;47853;55.890;37.664;2023-12-20T00:51:08;1.95;;;1.05;;
61899;SDS011;47853;55.890;37.664;2023-12-20T00:53:33;0.98;;;0.90;;
61899;SDS011;47853;55.890;37.664;2023-12-20T00:55:58;2.70;;;1.30;;
61899;SDS011;47853;55.890;37.664;2023-12-20T00:58:24;2.15;;;1.13;;
61899;SDS011;47853;55.890;37.664;2023-12-20T01:00:49;1.13;;;1.00;;
61899;SDS011;47853;55.890;37.664;2023-12-20T01:03:15;1.13;;;1.10;;
61899;SDS011;47853;55.890;37.664;2023-12-20T01:05:40;4.07;;;1.20;;
61899;SDS011;47853;55.890;37.664;2023-12-20T01:08:06;1.73;;;1.30;;
61899;SDS011;47853;55.890;37.664;2023-12-20T01:10:31;1.20;;;1.10;;
61899;SDS011;47853;55.890;37.664;2023-12-20T01:12:57;5.10;;;1.63;;
61899;SDS011;47853;55.890;37.664;2023-12-20T01:15:22;1.67;;;1.45;;
61899;SDS011;47853;55.890;37.664;2023-12-20T01:17:48;5.03;;;1.70;;
61899;SDS011;47853;55.890;37.664;2023-12-20T01:20:13;2.33;;;1.52;;
61899;SDS011;47853;55.890;37.664;2023-12-20T01:22:38;2.83;;;1.30;;
61899;SDS011;47853;55.890;37.664;2023-12-20T01:25:04;4.45;;;1.48;;
61899;SDS011;47853;55.890;37.664;2023-12-20T01:27:30;1.90;;;1.70;;
61899;SDS011;47853;55.890;37.664;2023-12-20T01:29:55;1.60;;;1.50;;
61899;SDS011;47853;55.890;37.664;2023-12-20T01:32:20;1.50;;;1.40;;
61899;SDS011;47853;55.890;37.664;2023-12-20T01:34:46;3.22;;;1.73;;
61899;SDS011;47853;55.890;37.664;2023-12-20T01:37:11;1.80;;;1.65;;
61899;SDS011;47853;55.890;37.664;2023-12-20T01:39:37;2.00;;;1.52;;
61899;SDS011;47853;55.890;37.664;2023-12-20T01:42:02;1.63;;;1.48;;
61899;SDS011;47853;55.890;37.664;2023-12-20T01:44:28;2.33;;;1.80;;
61899;SDS011;47853;55.890;37.664;2023-12-20T01:46:53;2.70;;;1.55;;
61899;SDS011;47853;55.890;37.664;2023-12-20T01:49:19;1.48;;;1.38;;
61899;SDS011;47853;55.890;37.664;2023-12-20T01:51:45;3.35;;;1.77;;
61899;SDS011;47853;55.890;37.664;2023-12-20T01:54:11;2.03;;;1.60;;
61899;SDS011;47853;55.890;37.664;2023-12-20T01:56:37;2.65;;;1.90;;
61899;SDS011;47853;55.890;37.664;2023-12-20T01:59:04;3.35;;;1.90;;
61899;SDS011;47853;55.890;37.664;2023-12-20T02:01:31;2.03;;;1.90;;
61899;SDS011;47853;55.890;37.664;2023-12-20T02:03:57;2.60;;;2.08;;
61899;SDS011;47853;55.890;37.664;2023-12-20T02:06:23;2.95;;;2.10;;
61899;SDS011;47853;55.890;37.664;2023-12-20T02:08:50;2.17;;;1.98;;
61899;SDS011;47853;55.890;37.664;2023-12-20T02:11:15;3.30;;;2.40;;
61899;SDS011;47853;55.890;37.664;2023-12-20T02:13:41;3.05;;;2.47;;
61899;SDS011;47853;55.890;37.664;2023-12-20T02:16:06;5.78;;;2.40;;
61899;SDS011;47853;55.890;37.664;2023-12-20T02:18:32;2.25;;;2.00;;
61899;SDS011;47853;55.890;37.664;2023-12-20T02:20:58;2.85;;;2.38;;
61899;SDS011;47853;55.890;37.664;2023-12-20T02:23:23;2.45;;;1.67;;
61899;SDS011;47853;55.890;37.664;2023-12-20T02:25:48;3.80;;;2.50;;
61899;SDS011;47853;55.890;37.664;2023-12-20T02:28:14;2.45;;;2.25;;
61899;SDS011;47853;55.890;37.664;2023-12-20T02:30:40;3.17;;;2.08;;
61899;SDS011;47853;55.890;37.664;2023-12-20T02:33:07;2.97;;;2.00;;
61899;SDS011;47853;55.890;37.664;2023-12-20T02:35:35;3.13;;;1.92;;
61899;SDS011;47853;55.890;37.664;2023-12-20T02:38:01;2.20;;;2.00;;
61899;SDS011;47853;55.890;37.664;2023-12-20T02:40:26;2.33;;;2.10;;
61899;SDS011;47853;55.890;37.664;2023-12-20T02:42:51;2.75;;;1.80;;
61899;SDS011;47853;55.890;37.664;2023-12-20T02:45:17;1.83;;;1.50;;
61899;SDS011;47853;55.890;37.664;2023-12-20T02:47:42;2.85;;;1.55;;
61899;SDS011;47853;55.890;37.664;2023-12-20T02:50:08;3.25;;;1.50;;
61899;SDS011;47853;55.890;37.664;2023-12-20T02:52:33;1.67;;;1.40;;
61899;SDS011;47853;55.890;37.664;2023-12-20T02:54:59;3.40;;;1.35;;
61899;SDS011;47853;55.890;37.664;2023-12-20T02:57:24;3.53;;;1.60;;
61899;SDS011;47853;55.890;37.664;2023-12-20T02:59:49;2.20;;;1.63;;
61899;SDS011;47853;55.890;37.664;2023-12-20T03:02:15;2.08;;;1.63;;
61899;SDS011;47853;55.890;37.664;2023-12-20T03:04:40;2.40;;;1.40;;
61899;SDS011;47853;55.890;37.664;2023-12-20T03:07:06;2.35;;;1.30;;
61899;SDS011;47853;55.890;37.664;2023-12-20T03:09:31;1.35;;;1.27;;
61899;SDS011;47853;55.890;37.664;2023-12-20T03:11:57;2.53;;;1.45;;
61899;SDS011;47853;55.890;37.664;2023-12-20T03:14:22;2.88;;;1.30;;
61899;SDS011;47853;55.890;37.664;2023-12-20T03:16:50;1.35;;;1.10;;
61899;SDS011;47853;55.890;37.664;2023-12-20T03:19:16;2.15;;;1.33;;
61899;SDS011;47853;55.890;37.664;2023-12-20T03:21:43;2.28;;;1.35;;
61899;SDS011;47853;55.890;37.664;2023-12-20T03:24:08;3.35;;;1.50;;
61899;SDS011;47853;55.890;37.664;2023-12-20T03:26:33;4.97;;;1.35;;
61899;SDS011;47853;55.890;37.664;2023-12-20T03:28:59;1.45;;;1.20;;
61899;SDS011;47853;55.890;37.664;2023-12-20T03:31:24;2.05;;;1.20;;
61899;SDS011;47853;55.890;37.664;2023-12-20T03:33:50;3.08;;;1.83;;
61899;SDS011;47853;55.890;37.664;2023-12-20T03:36:15;3.47;;;1.70;;
61899;SDS011;47853;55.890;37.664;2023-12-20T03:38:40;1.98;;;1.77;;
61899;SDS011;47853;55.890;37.664;2023-12-20T03:41:06;4.38;;;2.50;;
61899;SDS011;47853;55.890;37.664;2023-12-20T03:43:32;3.08;;;1.85;;
61899;SDS011;47853;55.890;37.664;2023-12-20T03:45:57;2.03;;;1.83;;
61899;SDS011;47853;55.890;37.664;2023-12-20T03:48:23;3.35;;;2.22;;
61899;SDS011;47853;55.890;37.664;2023-12-20T03:50:48;2.90;;;1.85;;
61899;SDS011;47853;55.890;37.664;2023-12-20T03:53:13;3.90;;;1.80;;
61899;SDS011;47853;55.890;37.664;2023-12-20T03:55:39;3.60;;;1.90;;
61899;SDS011;47853;55.890;37.664;2023-12-20T03:58:04;2.92;;;1.70;;
61899;SDS011;47853;55.890;37.664;2023-12-20T04:00:30;1.70;;;1.58;;
61899;SDS011;47853;55.890;37.664;2023-12-20T04:02:55;2.95;;;1.70;;
61899;SDS011;47853;55.890;37.664;2023-12-20T04:05:21;2.22;;;1.90;;
61899;SDS011;47853;55.890;37.664;2023-12-20T04:07:46;1.52;;;1.38;;
61899;SDS011;47853;55.890;37.664;2023-12-20T04:10:11;2.20;;;2.00;;
61899;SDS011;47853;55.890;37.664;2023-12-20T04:12:37;2.40;;;2.20;;
61899;SDS011;47853;55.890;37.664;2023-12-20T04:15:02;9.98;;;1.95;;
61899;SDS011;47853;55.890;37.664;2023-12-20T04:17:28;2.78;;;2.10;;
61899;SDS011;47853;55.890;37.664;2023-12-20T04:19:54;2.30;;;1.90;;
61899;SDS011;47853;55.890;37.664;2023-12-20T04:22:19;2.28;;;2.08;;
61899;SDS011;47853;55.890;37.664;2023-12-20T04:24:44;4.13;;;2.60;;
61899;SDS011;47853;55.890;37.664;2023-12-20T04:27:10;4.35;;;2.35;;
61899;SDS011;47853;55.890;37.664;2023-12-20T04:29:36;4.47;;;2.90;;
61899;SDS011;47853;55.890;37.664;2023-12-20T04:32:01;4.25;;;2.70;;
61899;SDS011;47853;55.890;37.664;2023-12-20T04:34:27;3.20;;;2.80;;
61899;SDS011;47853;55.890;37.664;2023-12-20T04:36:52;2.67;;;2.22;;
61899;SDS011;47853;55.890;37.664;2023-12-20T04:39:18;4.78;;;2.95;;
61899;SDS011;47853;55.890;37.664;2023-12-20T04:41:44;5.45;;;2.53;;
61899;SDS011;47853;55.890;37.664;2023-12-20T04:44:09;2.38;;;2.10;;
61899;SDS011;47853;55.890;37.664;2023-12-20T04:46:35;3.92;;;2.53;;
61899;SDS011;47853;55.890;37.664;2023-12-20T04:49:00;3.15;;;2.78;;
61899;SDS011;47853;55.890;37.664;2023-12-20T04:51:26;4.47;;;2.53;;
61899;SDS011;47853;55.890;37.664;2023-12-20T04:53:52;3.83;;;2.92;;
61899;SDS011;47853;55.890;37.664;2023-12-20T04:56:17;4.55;;;2.10;;
61899;SDS011;47853;55.890;37.664;2023-12-20T04:58:43;2.80;;;2.40;;
61899;SDS011;47853;55.890;37.664;2023-12-20T05:01:08;4.15;;;2.40;;
61899;SDS011;47853;55.890;37.664;2023-12-20T05:03:34;3.08;;;2.50;;
61899;SDS011;47853;55.890;37.664;2023-12-20T05:06:00;2.90;;;1.83;;
61899;SDS011;47853;55.890;37.664;2023-12-20T05:08:25;2.08;;;1.80;;
61899;SDS011;47853;55.890;37.664;2023-12-20T05:10:54;1.65;;;1.55;;
61899;SDS011;47853;55.890;37.664;2023-12-20T05:13:20;3.17;;;1.75;;
61899;SDS011;47853;55.890;37.664;2023-12-20T05:15:45;2.25;;;2.00;;
61899;SDS011;47853;55.890;37.664;2023-12-20T05:18:11;4.38;;;2.10;;
61899;SDS011;47853;55.890;37.664;2023-12-20T05:20:37;3.90;;;2.10;;
61899;SDS011;47853;55.890;37.664;2023-12-20T05:23:02;3.78;;;1.80;;
61899;SDS011;47853;55.890;37.664;2023-12-20T05:25:28;3.67;;;2.00;;
61899;SDS011;47853;55.890;37.664;2023-12-20T05:27:53;4.78;;;2.00;;
61899;SDS011;47853;55.890;37.664;2023-12-20T05:30:18;4.25;;;2.03;;
61899;SDS011;47853;55.890;37.664;2023-12-20T05:32:44;7.63;;;2.22;;
61899;SDS011;47853;55.890;37.664;2023-12-20T05:35:09;6.63;;;2.65;;
61899;SDS011;47853;55.890;37.664;2023-12-20T05:37:35;3.03;;;1.95;;
61899;SDS011;47853;55.890;37.664;2023-12-20T05:40:00;4.10;;;2.25;;
61899;SDS011;47853;55.890;37.664;2023-12-20T05:42:26;2.95;;;1.50;;
61899;SDS011;47853;55.890;37.664;2023-12-20T05:44:51;4.15;;;1.77;;
61899;SDS011;47853;55.890;37.664;2023-12-20T05:47:16;2.53;;;2.00;;
61899;SDS011;47853;55.890;37.664;2023-12-20T05:49:43;1.73;;;1.58;;
61899;SDS011;47853;55.890;37.664;2023-12-20T05:52:09;1.52;;;1.42;;
61899;SDS011;47853;55.890;37.664;2023-12-20T05:54:34;4.43;;;2.17;;
61899;SDS011;47853;55.890;37.664;2023-12-20T05:57:00;1.60;;;1.50;;
61899;SDS011;47853;55.890;37.664;2023-12-20T05:59:25;7.22;;;2.17;;
61899;SDS011;47853;55.890;37.664;2023-12-20T06:01:50;3.97;;;2.20;;
61899;SDS011;47853;55.890;37.664;2023-12-20T06:04:16;2.17;;;1.95;;
61899;SDS011;47853;55.890;37.664;2023-12-20T06:06:42;4.30;;;2.30;;
61899;SDS011;47853;55.890;37.664;2023-12-20T06:09:08;3.40;;;2.25;;
61899;SDS011;47853;55.890;37.664;2023-12-20T06:11:34;6.18;;;2.53;;
61899;SDS011;47853;55.890;37.664;2023-12-20T06:13:59;6.63;;;2.63;;
61899;SDS011;47853;55.890;37.664;2023-12-20T06:16:24;7.35;;;3.08;;
61899;SDS011;47853;55.890;37.664;2023-12-20T06:18:50;2.63;;;2.40;;
61899;SDS011;47853;55.890;37.664;2023-12-20T06:21:15;4.32;;;2.30;;
61899;SDS011;47853;55.890;37.664;2023-12-20T06:23:41;4.63;;;2.53;;
61899;SDS011;47853;55.890;37.664;2023-12-20T06:26:06;5.43;;;2.13;;
61899;SDS011;47853;55.890;37.664;2023-12-20T06:28:32;7.70;;;3.05;;
61899;SDS011;47853;55.890;37.664;2023-12-20T06:30:57;5.45;;;3.03;;
61899;SDS011;47853;55.890;37.664;2023-12-20T06:33:23;6.30;;;3.40;;
61899;SDS011;47853;55.890;37.664;2023-12-20T06:35:48;5.30;;;2.97;;
61899;SDS011;47853;55.890;37.664;2023-12-20T06:38:14;7.78;;;3.33;;
61899;SDS011;47853;55.890;37.664;2023-12-20T06:40:40;6.63;;;3.35;;
61899;SDS011;47853;55.890;37.664;2023-12-20T06:43:05;3.92;;;2.70;;
61899;SDS011;47853;55.890;37.664;2023-12-20T06:45:30;3.72;;;3.30;;
61899;SDS011;47853;55.890;37.664;2023-12-20T06:47:56;7.28;;;3.15;;
61899;SDS011;47853;55.890;37.664;2023-12-20T06:50:21;4.65;;;3.20;;
61899;SDS011;47853;55.890;37.664;2023-12-20T06:52:47;7.22;;;3.40;;
61899;SDS011;47853;55.890;37.664;2023-12-20T06:55:12;9.75;;;3.40;;
61899;SDS011;47853;55.890;37.664;2023-12-20T06:57:38;6.15;;;3.97;;
61899;SDS011;47853;55.890;37.664;2023-12-20T07:00:03;9.43;;;3.30;;
61899;SDS011;47853;55.890;37.664;2023-12-20T07:02:29;6.50;;;3.38;;
61899;SDS011;47853;55.890;37.664;2023-12-20T07:04:54;6.22;;;3.45;;
61899;SDS011;47853;55.890;37.664;2023-12-20T07:07:20;10.98;;;3.78;;
61899;SDS011;47853;55.890;37.664;2023-12-20T07:09:45;9.77;;;3.65;;
61899;SDS011;47853;55.890;37.664;2023-12-20T07:12:11;5.00;;;3.35;;
61899;SDS011;47853;55.890;37.664;2023-12-20T07:14:36;6.60;;;3.83;;
61899;SDS011;47853;55.890;37.664;2023-12-20T07:17:02;7.95;;;3.72;;
61899;SDS011;47853;55.890;37.664;2023-12-20T07:19:27;6.80;;;3.30;;
61899;SDS011;47853;55.890;37.664;2023-12-20T07:21:53;2.80;;;2.30;;
61899;SDS011;47853;55.890;37.664;2023-12-20T07:24:18;4.63;;;2.80;;
61899;SDS011;47853;55.890;37.664;2023-12-20T07:26:44;6.07;;;2.63;;
61899;SDS011;47853;55.890;37.664;2023-12-20T07:29:09;7.90;;;3.97;;
61899;SDS011;47853;55.890;37.664;2023-12-20T07:31:34;4.30;;;2.83;;
61899;SDS011;47853;55.890;37.664;2023-12-20T07:34:00;4.15;;;2.97;;
61899;SDS011;47853;55.890;37.664;2023-12-20T07:36:25;3.50;;;2.58;;
61899;SDS011;47853;55.890;37.664;2023-12-20T07:38:51;5.45;;;2.90;;
61899;SDS011;47853;55.890;37.664;2023-12-20T07:41:16;3.55;;;2.42;;
61899;SDS011;47853;55.890;37.664;2023-12-20T07:43:41;3.25;;;2.42;;
61899;SDS011;47853;55.890;37.664;2023-12-20T07:46:07;4.15;;;2.88;;
61899;SDS011;47853;55.890;37.664;2023-12-20T07:48:39;2.90;;;2.50;;
61899;SDS011;47853;55.890;37.664;2023-12-20T07:51:14;4.35;;;2.38;;
61899;SDS011;47853;55.890;37.664;2023-12-20T07:53:43;5.93;;;2.42;;
61899;SDS011;47853;55.890;37.664;2023-12-20T07:56:14;3.25;;;2.20;;
61899;SDS011;47853;55.890;37.664;2023-12-20T07:58:46;4.72;;;2.92;;
61899;SDS011;47853;55.890;37.664;2023-12-20T08:01:22;3.70;;;1.98;;
61899;SDS011;47853;55.890;37.664;2023-12-20T08:04:00;2.55;;;2.28;;
61899;SDS011;47853;55.890;37.664;2023-12-20T08:06:44;2.92;;;1.65;;
61899;SDS011;47853;55.890;37.664;2023-12-20T08:09:12;3.17;;;1.92;;
61899;SDS011;47853;55.890;37.664;2023-12-20T08:11:40;2.70;;;1.80;;
61899;SDS011;47853;55.890;37.664;2023-12-20T08:14:13;5.30;;;2.70;;
61899;SDS011;47853;55.890;37.664;2023-12-20T08:16:44;8.07;;;3.03;;
61899;SDS011;47853;55.890;37.664;2023-12-20T08:19:16;2.65;;;1.65;;
61899;SDS011;47853;55.890;37.664;2023-12-20T08:21:53;3.20;;;2.30;;
61899;SDS011;47853;55.890;37.664;2023-12-20T08:24:24;6.38;;;3.22;;
61899;SDS011;47853;55.890;37.664;2023-12-20T08:26:52;3.17;;;2.10;;
61899;SDS011;47853;55.890;37.664;2023-12-20T08:29:27;3.55;;;2.20;;
61899;SDS011;47853;55.890;37.664;2023-12-20T08:32:22;3.60;;;2.00;;
61899;SDS011;47853;55.890;37.664;2023-12-20T08:35:04;4.68;;;2.53;;
61899;SDS011;47853;55.890;37.664;2023-12-20T08:37:31;4.75;;;2.25;;
61899;SDS011;47853;55.890;37.664;2023-12-20T08:40:12;7.65;;;2.50;;
61899;SDS011;47853;55.890;37.664;2023-12-20T08:42:46;3.42;;;2.40;;
61899;SDS011;47853;55.890;37.664;2023-12-20T08:45:46;4.53;;;2.00;;
61899;SDS011;47853;55.890;37.664;2023-12-20T08:48:57;4.85;;;2.05;;
61899;SDS011;47853;55.890;37.664;2023-12-20T08:51:12;4.22;;;2.25;;
61899;SDS011;47853;55.890;37.664;2023-12-20T08:53:41;6.05;;;2.40;;
61899;SDS011;47853;55.890;37.664;2023-12-20T08:56:10;3.08;;;2.33;;
61899;SDS011;47853;55.890;37.664;2023-12-20T09:02:01;4.32;;;2.63;;
61899;SDS011;47853;55.890;37.664;2023-12-20T09:04:58;3.95;;;2.30;;
61899;SDS011;47853;55.890;37.664;2023-12-20T09:07:32;4.32;;;2.08;;
61899;SDS011;47853;55.890;37.664;2023-12-20T09:16:29;4.10;;;2.33;;
61899;SDS011;47853;55.890;37.664;2023-12-20T09:31:59;3.25;;;2.20;;
61899;SDS011;47853;55.890;37.664;2023-12-20T09:38:14;3.63;;;2.65;;
61899;SDS011;47853;55.890;37.664;2023-12-20T09:43:56;3.05;;;2.30;;
61899;SDS011;47853;55.890;37.664;2023-12-20T09:46:42;1.88;;;1.75;;
61899;SDS011;47853;55.890;37.664;2023-12-20T09:49:12;4.75;;;2.50;;
61899;SDS011;47853;55.890;37.664;2023-12-20T09:51:42;3.72;;;1.70;;
61899;SDS011;47853;55.890;37.664;2023-12-20T09:54:31;4.63;;;2.17;;
61899;SDS011;47853;55.890;37.664;2023-12-20T09:56:58;2.33;;;2.00;;
61899;SDS011;47853;55.890;37.664;2023-12-20T09:59:34;2.63;;;2.00;;
61899;SDS011;47853;55.890;37.664;2023-12-20T10:01:59;3.05;;;2.30;;
61899;SDS011;47853;55.890;37.664;2023-12-20T10:04:29;3.17;;;2.40;;
61899;SDS011;47853;55.890;37.664;2023-12-20T10:07:01;4.30;;;2.60;;
61899;SDS011;47853;55.890;37.664;2023-12-20T10:09:27;2.85;;;2.00;;
61899;SDS011;47853;55.890;37.664;2023-12-20T10:11:56;4.00;;;2.25;;
61899;SDS011;47853;55.890;37.664;2023-12-20T10:14:22;1.98;;;1.77;;
61899;SDS011;47853;55.890;37.664;2023-12-20T10:16:47;5.50;;;2.75;;
61899;SDS011;47853;55.890;37.664;2023-12-20T10:19:15;2.13;;;1.92;;
61899;SDS011;47853;55.890;37.664;2023-12-20T10:21:42;3.05;;;1.80;;
61899;SDS011;47853;55.890;37.664;2023-12-20T10:24:07;2.15;;;1.95;;
61899;SDS011;47853;55.890;37.664;2023-12-20T10:26:32;2.17;;;1.98;;
61899;SDS011;47853;55.890;37.664;2023-12-20T10:29:01;3.33;;;2.42;;
61899;SDS011;47853;55.890;37.664;2023-12-20T10:31:30;4.38;;;2.20;;
61899;SDS011;47853;55.890;37.664;2023-12-20T10:33:59;3.25;;;2.05;;
61899;SDS011;47853;55.890;37.664;2023-12-20T10:36:26;3.45;;;2.28;;
61899;SDS011;47853;55.890;37.664;2023-12-20T10:38:52;2.88;;;2.40;;
61899;SDS011;47853;55.890;37.664;2023-12-20T10:41:24;2.50;;;2.22;;
61899;SDS011;47853;55.890;37.664;2023-12-20T10:43:51;2.63;;;2.25;;
61899;SDS011;47853;55.890;37.664;2023-12-20T10:46:17;2.50;;;2.30;;
61899;SDS011;47853;55.890;37.664;2023-12-20T10:48:44;5.57;;;2.55;;
61899;SDS011;47853;55.890;37.664;2023-12-20T10:51:11;4.93;;;2.25;;
61899;SDS011;47853;55.890;37.664;2023-12-20T10:53:38;7.03;;;2.10;;
61899;SDS011;47853;55.890;37.664;2023-12-20T10:56:05;3.10;;;2.10;;
61899;SDS011;47853;55.890;37.664;2023-12-20T10:58:33;2.90;;;2.20;;
61899;SDS011;47853;55.890;37.664;2023-12-20T11:01:01;4.88;;;2.20;;
61899;SDS011;47853;55.890;37.664;2023-12-20T11:03:28;2.97;;;2.25;;
61899;SDS011;47853;55.890;37.664;2023-12-20T11:06:07;2.05;;;1.85;;
61899;SDS011;47853;55.890;37.664;2023-12-20T11:16:19;2.00;;;1.80;;
61899;SDS011;47853;55.890;37.664;2023-12-20T11:18:50;3.22;;;1.60;;
61899;SDS011;47853;55.890;37.664;2023-12-20T11:21:22;5.03;;;1.83;;
61899;SDS011;47853;55.890;37.664;2023-12-20T11:24:00;4.10;;;2.20;;
61899;SDS011;47853;55.890;37.664;2023-12-20T11:26:30;3.22;;;1.98;;
61899;SDS011;47853;55.890;37.664;2023-12-20T11:32:02;3.03;;;1.85;;
61899;SDS011;47853;55.890;37.664;2023-12-20T11:34:31;3.70;;;1.80;;
61899;SDS011;47853;55.890;37.664;2023-12-20T11:37:01;3.25;;;1.67;;
61899;SDS011;47853;55.890;37.664;2023-12-20T11:39:33;3.28;;;2.00;;
61899;SDS011;47853;55.890;37.664;2023-12-20T11:42:03;2.72;;;2.00;;
61899;SDS011;47853;55.890;37.664;2023-12-20T11:44:30;4.13;;;1.70;;
61899;SDS011;47853;55.890;37.664;2023-12-20T11:46:58;3.88;;;2.10;;
61899;SDS011;47853;55.890;37.664;2023-12-20T11:49:26;3.88;;;2.13;;
61899;SDS011;47853;55.890;37.664;2023-12-20T11:51:52;3.95;;;2.08;;
61899;SDS011;47853;55.890;37.664;2023-12-20T11:54:23;2.97;;;2.17;;
61899;SDS011;47853;55.890;37.664;2023-12-20T11:56:51;2.33;;;1.45;;
61899;SDS011;47853;55.890;37.664;2023-12-20T11:59:16;2.40;;;1.83;;
61899;SDS011;47853;55.890;37.664;2023-12-20T12:01:47;2.72;;;2.28;;
61899;SDS011;47853;55.890;37.664;2023-12-20T12:04:13;2.50;;;1.85;;
61899;SDS011;47853;55.890;37.664;2023-12-20T12:06:39;4.82;;;1.67;;
61899;SDS011;47853;55.890;37.664;2023-12-20T12:09:04;4.07;;;1.70;;
61899;SDS011;47853;55.890;37.664;2023-12-20T12:11:30;1.92;;;1.58;;
61899;SDS011;47853;55.890;37.664;2023-12-20T12:13:55;3.03;;;2.25;;
61899;SDS011;47853;55.890;37.664;2023-12-20T12:16:21;3.25;;;1.40;;
61899;SDS011;47853;55.890;37.664;2023-12-20T12:18:54;2.88;;;1.80;;
61899;SDS011;47853;55.890;37.664;2023-12-20T12:21:23;1.20;;;1.08;;
61899;SDS011;47853;55.890;37.664;2023-12-20T12:23:49;5.57;;;1.77;;
61899;SDS011;47853;55.890;37.664;2023-12-20T12:26:15;2.05;;;1.58;;
61899;SDS011;47853;55.890;37.664;2023-12-20T12:28:41;1.70;;;1.45;;
61899;SDS011;47853;55.890;37.664;2023-12-20T12:31:06;2.47;;;1.98;;
61899;SDS011;47853;55.890;37.664;2023-12-20T12:33:32;2.22;;;1.45;;
61899;SDS011;47853;55.890;37.664;2023-12-20T12:35:58;1.58;;;1.40;;
61899;SDS011;47853;55.890;37.664;2023-12-20T12:38:23;2.47;;;1.45;;
61899;SDS011;47853;55.890;37.664;2023-12-20T12:40:49;2.38;;;1.45;;
61899;SDS011;47853;55.890;37.664;2023-12-20T12:43:15;2.75;;;1.58;;
61899;SDS011;47853;55.890;37.664;2023-12-20T12:45:41;3.40;;;1.60;;
61899;SDS011;47853;55.890;37.664;2023-12-20T12:48:06;4.22;;;1.58;;
61899;SDS011;47853;55.890;37.664;2023-12-20T12:50:32;2.22;;;1.65;;
61899;SDS011;47853;55.890;37.664;2023-12-20T12:52:57;2.25;;;1.98;;
61899;SDS011;47853;55.890;37.664;2023-12-20T12:55:23;1.20;;;1.10;;
61899;SDS011;47853;55.890;37.664;2023-12-20T12:57:48;3.17;;;1.88;;
61899;SDS011;47853;55.890;37.664;2023-12-20T13:00:14;5.07;;;1.88;;
61899;SDS011;47853;55.890;37.664;2023-12-20T13:02:42;3.50;;;1.98;;
61899;SDS011;47853;55.890;37.664;2023-12-20T13:05:08;2.67;;;1.48;;
61899;SDS011;47853;55.890;37.664;2023-12-20T13:07:33;1.73;;;1.30;;
61899;SDS011;47853;55.890;37.664;2023-12-20T13:09:59;2.72;;;1.98;;
61899;SDS011;47853;55.890;37.664;2023-12-20T13:12:24;24.17;;;3.67;;
61899;SDS011;47853;55.890;37.664;2023-12-20T13:14:50;3.20;;;1.58;;
61899;SDS011;47853;55.890;37.664;2023-12-20T13:17:15;3.22;;;1.60;;
61899;SDS011;47853;55.890;37.664;2023-12-20T13:19:41;6.55;;;1.50;;
61899;SDS011;47853;55.890;37.664;2023-12-20T13:22:06;2.20;;;1.73;;
61899;SDS011;47853;55.890;37.664;2023-12-20T13:24:31;2.63;;;1.40;;
61899;SDS011;47853;55.890;37.664;2023-12-20T13:26:57;4.22;;;1.63;;
61899;SDS011;47853;55.890;37.664;2023-12-20T13:29:23;6.65;;;2.10;;
61899;SDS011;47853;55.890;37.664;2023-12-20T13:31:49;2.47;;;1.48;;
61899;SDS011;47853;55.890;37.664;2023-12-20T13:34:14;3.67;;;1.83;;
61899;SDS011;47853;55.890;37.664;2023-12-20T13:36:40;2.80;;;1.80;;
61899;SDS011;47853;55.890;37.664;2023-12-20T13:39:05;9.70;;;2.60;;
61899;SDS011;47853;55.890;37.664;2023-12-20T13:41:31;5.13;;;2.20;;
61899;SDS011;47853;55.890;37.664;2023-12-20T13:43:56;4.10;;;1.90;;
61899;SDS011;47853;55.890;37.664;2023-12-20T13:46:22;3.08;;;2.00;;
61899;SDS011;47853;55.890;37.664;2023-12-20T13:48:47;5.45;;;2.35;;
61899;SDS011;47853;55.890;37.664;2023-12-20T13:51:13;5.85;;;2.10;;
61899;SDS011;47853;55.890;37.664;2023-12-20T13:53:38;7.07;;;2.40;;
61899;SDS011;47853;55.890;37.664;2023-12-20T13:56:04;6.68;;;2.40;;
61899;SDS011;47853;55.890;37.664;2023-12-20T13:58:29;4.38;;;2.17;;
61899;SDS011;47853;55.890;37.664;2023-12-20T14:00:55;3.70;;;2.10;;
61899;SDS011;47853;55.890;37.664;2023-12-20T14:03:20;4.78;;;1.90;;
61899;SDS011;47853;55.890;37.664;2023-12-20T14:05:46;3.72;;;2.00;;
61899;SDS011;47853;55.890;37.664;2023-12-20T14:08:11;5.63;;;1.85;;
61899;SDS011;47853;55.890;37.664;2023-12-20T14:10:37;3.88;;;2.10;;
61899;SDS011;47853;55.890;37.664;2023-12-20T14:13:02;3.88;;;1.95;;
61899;SDS011;47853;55.890;37.664;2023-12-20T14:15:28;4.80;;;2.13;;
61899;SDS011;47853;55.890;37.664;2023-12-20T14:17:53;2.53;;;1.63;;
61899;SDS011;47853;55.890;37.664;2023-12-20T14:20:18;8.65;;;2.60;;
61899;SDS011;47853;55.890;37.664;2023-12-20T14:22:44;3.75;;;1.33;;
61899;SDS011;47853;55.890;37.664;2023-12-20T14:25:12;5.13;;;1.70;;
61899;SDS011;47853;55.890;37.664;2023-12-20T14:27:39;3.42;;;1.92;;
61899;SDS011;47853;55.890;37.664;2023-12-20T14:30:05;5.97;;;2.13;;
61899;SDS011;47853;55.890;37.664;2023-12-20T14:32:32;3.80;;;1.88;;
61899;SDS011;47853;55.890;37.664;2023-12-20T14:35:03;5.30;;;2.30;;
61899;SDS011;47853;55.890;37.664;2023-12-20T14:37:30;7.20;;;2.10;;
61899;SDS011;47853;55.890;37.664;2023-12-20T14:39:55;4.72;;;2.03;;
61899;SDS011;47853;55.890;37.664;2023-12-20T14:42:21;7.70;;;2.15;;
61899;SDS011;47853;55.890;37.664;2023-12-20T14:44:47;3.65;;;2.08;;
61899;SDS011;47853;55.890;37.664;2023-12-20T14:47:13;5.93;;;2.22;;
61899;SDS011;47853;55.890;37.664;2023-12-20T14:49:38;7.63;;;2.63;;
61899;SDS011;47853;55.890;37.664;2023-12-20T14:52:04;6.55;;;2.20;;
61899;SDS011;47853;55.890;37.664;2023-12-20T14:54:29;5.63;;;2.25;;
61899;SDS011;47853;55.890;37.664;2023-12-20T14:56:55;5.43;;;2.60;;
61899;SDS011;47853;55.890;37.664;2023-12-20T14:59:20;2.30;;;1.95;;
61899;SDS011;47853;55.890;37.664;2023-12-20T15:01:46;7.03;;;2.60;;
61899;SDS011;47853;55.890;37.664;2023-12-20T15:04:11;3.03;;;2.17;;
61899;SDS011;47853;55.890;37.664;2023-12-20T15:06:37;7.35;;;2.70;;
61899;SDS011;47853;55.890;37.664;2023-12-20T15:09:02;8.80;;;2.88;;
61899;SDS011;47853;55.890;37.664;2023-12-20T15:11:27;5.45;;;2.55;;